Time;durP1;ratioP1;P1;durP2;ratioP2;P2;SDS_P1;SDS_P2;PMS_P1;PMS_P2;Temp;Humidity;BMP_temperature;BMP_pressure;BME280_temperature;BME280_humidity;BME280_pressure;Samples;Min_cycle;Max_cycle;Signal;HPM_P1;HPM_P2
2022/11/10 00:00:37;;;;;;;8.90;2.50;;;;;;;14.27;58.03;101570.84;5053871;28;20082;-70
2022/11/10 00:03:22;;;;;;;6.97;2.97;;;;;;;14.29;58.19;101573.44;5038942;28;20131;-69
2022/11/10 00:06:08;;;;;;;;;;;;;;;14.30;58.28;101575.16;5054225;28;20099;-69
2022/11/10 00:08:53;;;;;;;10.43;2.67;;;;;;;14.34;58.09;101578.50;5063236;28;19927;-69
2022/11/10 00:11:38;;;;;;;10.27;2.55;;;;;;;14.33;57.90;101588.44;5073495;28;20129;-69
2022/11/10 00:17:29;;;;;;;10.07;2.80;;;;;;;14.34;58.17;101592.00;5073786;28;20048;-69
2022/11/10 00:20:14;;;;;;;15.10;2.95;;;;;;;14.32;57.83;101590.28;5058727;28;20179;-69
2022/11/10 00:22:59;;;;;;;10.95;2.72;;;;;;;14.31;57.97;101595.81;5073556;28;20081;-69
2022/11/10 00:25:46;;;;;;;8.77;2.90;;;;;;;14.30;58.26;101602.19;5073700;28;20106;-70
2022/11/10 00:28:31;;;;;;;7.85;3.00;;;;;;;14.26;57.93;101595.28;5073229;28;20414;-69
2022/11/10 00:31:16;;;;;;;7.13;2.67;;;;;;;14.23;58.02;101603.63;5073250;28;20055;-69
2022/11/10 00:34:01;;;;;;;11.88;3.05;;;;;;;14.19;57.89;101605.69;5073566;28;20118;-69
2022/11/10 00:37:02;;;;;;;9.93;2.63;;;;;;;14.19;58.02;101602.13;5010870;28;20054;-69
2022/11/10 00:39:47;;;;;;;10.63;2.63;;;;;;;14.18;58.13;101597.69;5010635;28;20606;-69
2022/11/10 00:42:32;;;;;;;9.68;2.40;;;;;;;14.16;58.11;101611.31;5010984;28;20113;-70
2022/11/10 00:45:17;;;;;;;10.03;2.77;;;;;;;14.16;57.94;101602.34;5010958;28;20467;-69
2022/11/10 00:48:02;;;;;;;9.43;2.73;;;;;;;14.13;58.14;101605.28;5010757;28;20060;-70
2022/11/10 00:50:47;;;;;;;7.13;2.80;;;;;;;14.10;57.43;101606.34;4991372;28;20058;-69
2022/11/10 00:53:33;;;;;;;7.80;2.67;;;;;;;14.06;57.96;101614.78;4991433;28;20149;-69
2022/11/10 00:56:19;;;;;;;8.30;3.25;;;;;;;14.01;58.10;101615.13;4991970;28;20090;-70
2022/11/10 00:59:04;;;;;;;8.55;2.88;;;;;;;13.98;57.94;101618.91;5010389;28;20061;-69
2022/11/10 01:01:49;;;;;;;14.97;4.30;;;;;;;13.96;58.10;101615.44;5010228;28;20141;-69
2022/11/10 01:04:36;;;;;;;10.13;3.70;;;;;;;13.98;58.20;101628.84;5010918;28;20283;-70
2022/11/10 01:07:21;;;;;;;13.18;2.92;;;;;;;13.94;58.20;101620.09;5010233;28;20651;-70
2022/11/10 01:10:08;;;;;;;7.88;2.65;;;;;;;13.91;57.92;101628.44;5010294;28;20132;-69
2022/11/10 01:12:53;;;;;;;9.43;3.08;;;;;;;13.89;58.13;101624.97;5022416;28;20064;-69
2022/11/10 01:15:40;;;;;;;6.78;3.10;;;;;;;13.86;58.36;101629.75;5032544;28;20053;-70
2022/11/10 01:18:25;;;;;;;9.43;3.13;;;;;;;13.81;58.19;101630.06;5048954;28;20044;-70
2022/11/10 01:21:10;;;;;;;8.18;2.88;;;;;;;13.75;57.88;101643.16;5052292;28;20582;-70
2022/11/10 01:23:56;;;;;;;11.48;3.50;;;;;;;13.70;58.28;101645.31;5052483;28;20095;-69
2022/11/10 01:26:42;;;;;;;;;;;;;;;13.67;58.09;101657.19;5035744;28;20056;-70
2022/11/10 01:29:27;;;;;;;10.43;3.23;;;;;;;13.67;58.39;101665.28;5032583;28;19928;-70
2022/11/10 01:32:12;;;;;;;14.10;3.92;;;;;;;13.63;58.06;101670.03;5032306;28;20534;-70
2022/11/10 01:34:57;;;;;;;10.48;3.58;;;;;;;13.58;58.31;101658.72;5030873;28;20052;-69
2022/11/10 01:37:42;;;;;;;5.13;2.72;;;;;;;13.56;58.38;101663.34;5032739;28;20068;-70
2022/11/10 01:40:27;;;;;;;9.15;3.05;;;;;;;13.54;58.40;101668.00;5031935;28;20613;-69
2022/11/10 01:43:14;;;;;;;8.68;3.80;;;;;;;13.55;58.76;101671.56;5032393;28;20056;-69
2022/11/10 01:46:03;;;;;;;11.30;4.00;;;;;;;13.56;58.75;101678.69;5032135;28;20056;-69
2022/11/10 01:49:02;;;;;;;12.25;3.70;;;;;;;13.55;58.60;101675.13;5032107;28;20589;-69
2022/11/10 01:51:53;;;;;;;14.20;3.38;;;;;;;13.54;58.63;101677.94;5031505;28;20049;-69
2022/11/10 01:54:45;;;;;;;13.30;3.70;;;;;;;13.54;58.67;101684.19;5044896;28;20052;-69
2022/11/10 01:57:30;;;;;;;10.75;3.25;;;;;;;13.54;58.60;101681.50;5051859;28;20055;-69
2022/11/10 02:00:17;;;;;;;7.97;3.05;;;;;;;13.55;58.74;101676.97;5066684;28;20054;-69
2022/11/10 02:03:04;;;;;;;10.60;3.17;;;;;;;13.56;58.68;101668.75;5071454;28;20055;-69
2022/11/10 02:05:51;;;;;;;10.65;3.28;;;;;;;13.58;58.73;101674.91;5070378;28;20097;-69
2022/11/10 02:08:36;;;;;;;10.52;3.00;;;;;;;13.55;58.48;101672.41;5071969;28;20129;-70
2022/11/10 02:11:22;;;;;;;7.95;3.40;;;;;;;13.56;58.82;101667.88;5071629;28;20082;-70
2022/11/10 02:14:08;;;;;;;11.55;3.42;;;;;;;13.57;58.88;101669.63;5062398;28;20091;-70
2022/11/10 02:17:02;;;;;;;10.48;3.30;;;;;;;13.57;58.82;101670.47;4970181;28;20055;-70
2022/11/10 02:19:51;;;;;;;12.80;3.47;;;;;;;13.57;58.88;101683.97;4970236;28;20063;-70
2022/11/10 02:22:36;;;;;;;8.85;3.03;;;;;;;13.56;58.68;101676.84;4970106;28;20137;-70
2022/11/10 02:25:24;;;;;;;10.43;3.03;;;;;;;13.58;58.65;101683.00;4970250;28;20078;-70
2022/11/10 02:28:09;;;;;;;9.88;3.15;;;;;;;13.58;58.81;101690.22;4970329;28;20499;-69
2022/11/10 02:30:54;;;;;;;7.53;3.10;;;;;;;13.55;59.10;101695.84;4969973;28;20142;-70
2022/11/10 02:33:39;;;;;;;7.72;2.85;;;;;;;13.53;58.50;101711.28;4976973;28;20180;-69
2022/11/10 02:36:24;;;;;;;10.07;3.13;;;;;;;13.51;58.65;101714.09;4989655;28;20058;-69
2022/11/10 02:39:09;;;;;;;9.38;3.03;;;;;;;13.47;58.59;101709.00;4989780;28;20540;-69
2022/11/10 02:41:54;;;;;;;11.32;3.85;;;;;;;13.47;58.56;101727.91;4956469;28;20563;-69
2022/11/10 02:44:43;;;;;;;11.73;3.55;;;;;;;13.45;59.05;101711.81;4970386;28;20093;-69
2022/11/10 02:47:28;;;;;;;10.77;3.10;;;;;;;13.44;58.88;101720.88;4970152;28;20057;-70
2022/11/10 02:50:13;;;;;;;8.17;2.80;;;;;;;13.44;59.10;101725.41;4976178;28;20555;-69
2022/11/10 02:52:57;;;;;;;8.55;2.92;;;;;;;13.41;58.96;101707.59;4994249;28;20543;-70
2022/11/10 02:55:47;;;;;;;7.72;2.70;;;;;;;13.41;59.22;101720.22;5051361;28;20057;-70
2022/11/10 02:58:32;;;;;;;10.18;3.30;;;;;;;13.42;58.98;101716.56;5051374;28;20060;-71
2022/11/10 03:01:16;;;;;;;18.63;3.35;;;;;;;13.42;59.08;101722.81;5050778;28;20079;-69
2022/11/10 03:04:02;;;;;;;10.70;2.90;;;;;;;13.39;59.23;101719.47;5050850;28;20514;-70
2022/11/10 03:06:48;;;;;;;11.07;2.88;;;;;;;13.37;59.10;101730.34;5050916;28;20514;-69
2022/11/10 03:09:34;;;;;;;11.18;3.45;;;;;;;13.36;59.34;101734.00;5050204;28;20449;-69
2022/11/10 03:12:19;;;;;;;12.68;3.10;;;;;;;13.34;59.27;101726.00;5070844;28;20553;-69
2022/11/10 03:15:04;;;;;;;12.93;3.40;;;;;;;13.31;59.10;101728.06;5069447;28;20055;-69
2022/11/10 03:17:50;;;;;;;12.10;3.38;;;;;;;13.28;59.31;101728.28;5071118;28;20055;-70
2022/11/10 03:20:35;;;;;;;8.60;2.60;;;;;;;13.28;59.24;101734.53;5050988;28;20056;-70
2022/11/10 03:23:20;;;;;;;9.63;3.35;;;;;;;13.29;59.54;101728.16;5050934;28;20048;-70
2022/11/10 03:26:06;;;;;;;11.00;3.22;;;;;;;13.30;59.39;101746.09;5055267;28;20060;-70
2022/11/10 03:28:51;;;;;;;14.65;3.72;;;;;;;13.27;59.20;101750.81;5054748;28;20083;-70
2022/11/10 03:31:36;;;;;;;9.77;3.70;;;;;;;13.28;59.18;101758.81;5054161;28;20407;-70
2022/11/10 03:34:26;;;;;;;11.80;3.60;;;;;;;13.28;59.52;101753.41;5055472;28;20534;-70
2022/11/10 03:37:15;;;;;;;8.57;2.95;;;;;;;13.24;59.19;101767.22;5062186;28;20055;-69
2022/11/10 03:40:00;;;;;;;9.67;3.50;;;;;;;13.20;59.46;101765.69;5074513;28;20094;-70
2022/11/10 03:42:46;;;;;;;9.00;2.92;;;;;;;13.20;59.23;101768.38;5074013;28;20055;-69
2022/11/10 03:45:34;;;;;;;11.10;2.80;;;;;;;13.20;59.48;101773.78;5074114;28;20067;-69
2022/11/10 03:48:19;;;;;;;11.90;4.22;;;;;;;13.20;59.23;101782.75;5057426;28;20497;-71
2022/11/10 03:51:05;;;;;;;13.63;3.40;;;;;;;13.16;59.33;101774.94;5053990;28;20187;-69
2022/11/10 03:53:50;;;;;;;11.60;2.72;;;;;;;13.14;59.62;101788.50;5053716;28;20064;-68
2022/11/10 03:56:36;;;;;;;8.53;3.23;;;;;;;13.13;59.63;101786.78;5055712;28;20060;-68
2022/11/10 03:59:21;;;;;;;10.68;3.03;;;;;;;13.12;59.38;101790.44;5073740;28;20052;-69
2022/11/10 04:02:06;;;;;;;9.27;2.77;;;;;;;13.10;59.42;101799.59;5073948;28;20060;-69
2022/11/10 04:11:02;;;;;;;14.45;3.10;;;;;;;13.04;59.23;101804.44;5073532;28;20482;-69
2022/11/10 04:16:52;;;;;;;14.65;3.28;;;;;;;13.01;59.74;101812.75;5073573;28;20051;-69
2022/11/10 04:19:37;;;;;;;11.77;2.65;;;;;;;13.01;59.38;101814.56;5073856;28;20143;-69
2022/11/10 04:26:27;;;;;;;9.55;3.53;;;;;;;13.05;59.67;101840.38;5060644;28;20427;-69
2022/11/10 04:28:35;;;;;;;9.40;2.47;;;;;;;13.06;59.60;101847.50;5053445;28;20553;-69
2022/11/10 04:31:21;;;;;;;12.00;2.77;;;;;;;13.05;59.73;101860.09;5053397;28;20563;-69
2022/11/10 04:34:29;;;;;;;7.75;2.42;;;;;;;13.05;59.50;101870.03;5054398;28;20055;-69
2022/11/10 04:37:14;;;;;;;10.65;3.97;;;;;;;13.04;59.30;101879.94;5072715;28;20418;-69
2022/11/10 04:39:59;;;;;;;13.43;3.42;;;;;;;13.01;59.59;101877.47;5073446;28;20746;-68
2022/11/10 04:42:44;;;;;;;11.02;2.92;;;;;;;12.99;59.56;101883.91;5073214;28;20102;-69
2022/11/10 04:45:29;;;;;;;9.40;3.65;;;;;;;12.94;59.54;101884.22;5071494;28;20051;-69
2022/11/10 04:48:14;;;;;;;7.60;2.88;;;;;;;12.92;59.68;101893.38;5073214;28;20114;-70
2022/11/10 04:51:05;;;;;;;10.57;3.97;;;;;;;12.92;59.63;101898.75;5072889;28;20079;-69
2022/11/10 04:53:50;;;;;;;7.43;3.20;;;;;;;12.90;59.68;101890.75;5072882;28;20048;-70
2022/11/10 04:56:36;;;;;;;11.00;3.63;;;;;;;12.89;59.70;101897.13;5052862;28;20056;-69
2022/11/10 04:59:21;;;;;;;11.80;3.45;;;;;;;12.91;59.41;101897.88;5052664;28;20059;-69
2022/11/10 05:02:06;;;;;;;12.57;2.90;;;;;;;12.94;59.55;101894.13;5052797;28;20060;-69
2022/11/10 05:04:55;;;;;;;10.77;3.10;;;;;;;12.97;59.37;101899.31;5053155;28;20051;-69
2022/11/10 05:07:40;;;;;;;11.10;3.15;;;;;;;12.99;59.71;101914.44;5071489;28;20110;-70
2022/11/10 05:10:26;;;;;;;7.70;2.92;;;;;;;13.00;59.59;101904.53;5073085;28;20402;-69
2022/11/10 05:13:11;;;;;;;;;;;;;;;12.99;59.50;101906.34;5072826;28;20170;-70
2022/11/10 05:15:57;;;;;;;5.68;2.53;;;;;;;13.02;59.47;101910.69;5056963;28;20006;-69
2022/11/10 05:18:42;;;;;;;10.00;3.17;;;;;;;12.99;59.41;101911.75;5037598;28;20442;-70
2022/11/10 05:21:26;;;;;;;8.27;2.50;;;;;;;12.96;59.38;101911.06;5052519;28;20194;-69
2022/11/10 05:24:37;;;;;;;6.33;2.80;;;;;;;12.91;59.41;101905.97;5053168;28;20111;-72
2022/11/10 05:27:21;;;;;;;8.45;3.05;;;;;;;12.91;59.15;101910.50;5072426;28;20133;-69
2022/11/10 05:30:07;;;;;;;10.27;3.30;;;;;;;12.90;59.00;101909.63;5072446;28;20048;-69
2022/11/10 05:32:52;;;;;;;9.07;2.95;;;;;;;12.88;59.11;101911.56;5068578;28;20353;-69
2022/11/10 05:35:39;;;;;;;12.70;3.38;;;;;;;12.88;59.39;101916.97;5052477;28;20443;-69
2022/11/10 05:38:24;;;;;;;8.15;2.80;;;;;;;12.85;59.16;101913.59;5052277;28;20465;-69
2022/11/10 05:41:10;;;;;;;10.63;3.45;;;;;;;12.84;59.33;101912.72;5052457;28;20051;-69
2022/11/10 05:43:55;;;;;;;7.88;3.20;;;;;;;12.82;59.28;101916.47;5064497;28;20182;-70
2022/11/10 05:46:41;;;;;;;8.57;2.93;;;;;;;12.81;59.63;101917.44;5072255;28;20055;-69
2022/11/10 05:49:26;;;;;;;11.13;3.63;;;;;;;12.82;59.41;101919.19;5071442;28;20095;-69
2022/11/10 05:52:11;;;;;;;15.07;3.50;;;;;;;12.83;59.57;101926.31;5071515;28;20047;-69
2022/11/10 05:54:58;;;;;;;13.52;3.33;;;;;;;12.82;59.47;101932.66;5051963;28;20350;-70
2022/11/10 05:57:47;;;;;;;12.15;3.63;;;;;;;12.78;59.57;101931.97;5036907;28;20095;-69
2022/11/10 06:00:33;;;;;;;9.05;3.33;;;;;;;12.78;59.77;101939.22;5051256;28;20507;-70
2022/11/10 06:03:19;;;;;;;13.77;4.10;;;;;;;12.75;59.70;101951.03;5057318;28;20059;-70
2022/11/10 06:06:05;;;;;;;9.13;3.25;;;;;;;12.73;59.79;101945.75;5071632;28;20580;-70
2022/11/10 06:08:50;;;;;;;11.50;3.60;;;;;;;12.72;59.87;101948.53;5071654;28;20044;-69
2022/11/10 06:11:35;;;;;;;11.05;3.13;;;;;;;12.70;59.94;101954.03;5071501;28;20552;-70
2022/11/10 06:14:24;;;;;;;10.97;3.47;;;;;;;12.68;60.10;101961.34;5069665;28;20059;-71
2022/11/10 06:17:09;;;;;;;15.60;3.90;;;;;;;12.65;59.84;101966.94;5071593;28;20298;-69
2022/11/10 06:19:54;;;;;;;10.15;3.22;;;;;;;12.65;59.92;101966.06;5071607;28;20155;-69
2022/11/10 06:22:40;;;;;;;11.30;3.47;;;;;;;12.66;60.06;101965.97;5057065;28;20060;-69
2022/11/10 06:25:26;;;;;;;12.98;4.20;;;;;;;12.69;60.11;101968.47;5051126;28;20298;-69
2022/11/10 06:28:13;;;;;;;11.00;3.88;;;;;;;12.71;60.10;101971.94;5051418;28;20392;-69
2022/11/10 06:30:58;;;;;;;10.07;3.60;;;;;;;12.71;60.01;101966.53;5051340;28;20056;-69
2022/11/10 06:33:43;;;;;;;13.80;3.88;;;;;;;12.72;60.17;101978.19;5051048;28;20562;-70
2022/11/10 06:36:28;;;;;;;12.30;3.67;;;;;;;12.71;60.36;101974.63;5050973;28;20052;-69
2022/11/10 06:39:13;;;;;;;18.40;4.20;;;;;;;12.71;60.17;101984.53;5051129;28;20187;-69
2022/11/10 06:41:58;;;;;;;14.70;3.87;;;;;;;12.70;60.01;101990.91;5058581;28;20043;-69
2022/11/10 06:44:47;;;;;;;14.23;3.78;;;;;;;12.68;59.97;101988.28;5071420;28;20060;-69
2022/11/10 06:47:31;;;;;;;9.75;3.50;;;;;;;12.69;59.86;102003.50;5071112;28;20110;-69
2022/11/10 06:50:17;;;;;;;13.13;4.10;;;;;;;12.69;59.91;102002.63;5071345;28;20105;-69
2022/11/10 06:53:02;;;;;;;14.93;4.03;;;;;;;12.67;60.26;102013.50;5069594;28;20059;-68
2022/11/10 06:55:49;;;;;;;11.60;3.45;;;;;;;12.66;60.28;102021.69;5071378;28;20052;-69
2022/11/10 06:58:34;;;;;;;12.07;4.03;;;;;;;12.65;60.41;102031.59;5070948;28;20178;-69
2022/11/10 07:01:24;;;;;;;14.48;4.30;;;;;;;12.64;60.35;102032.56;5059797;28;20052;-69
2022/11/10 07:04:10;;;;;;;10.93;3.80;;;;;;;12.63;60.37;102036.22;5040315;28;20510;-69
2022/11/10 07:07:10;;;;;;;15.85;4.10;;;;;;;12.62;60.44;102044.38;5055101;28;20056;-70
2022/11/10 07:09:56;;;;;;;18.73;4.05;;;;;;;12.59;60.05;102042.72;5055146;28;20099;-69
2022/11/10 07:12:41;;;;;;;10.02;2.72;;;;;;;12.59;60.40;102049.94;5055132;28;20511;-69
2022/11/10 07:15:27;;;;;;;13.98;3.92;;;;;;;12.62;60.61;102047.06;5055178;28;20461;-69
2022/11/10 07:18:13;;;;;;;14.93;4.10;;;;;;;12.65;60.44;102058.56;5055003;28;20051;-69
2022/11/10 07:21:00;;;;;;;12.27;4.63;;;;;;;12.69;60.47;102060.09;5055620;28;20095;-69
2022/11/10 07:23:45;;;;;;;14.20;3.83;;;;;;;12.73;60.38;102063.47;5054736;28;20098;-69
2022/11/10 07:26:30;;;;;;;18.17;4.22;;;;;;;12.75;60.76;102066.97;5054985;28;20099;-69
2022/11/10 07:29:16;;;;;;;20.75;4.38;;;;;;;12.78;60.66;102071.28;5055922;28;20122;-69
2022/11/10 07:32:00;;;;;;;11.30;3.97;;;;;;;12.78;60.89;102080.25;5054984;28;20076;-69
2022/11/10 07:34:50;;;;;;;9.95;3.67;;;;;;;12.80;60.87;102091.81;5054518;28;20047;-69
2022/11/10 07:37:35;;;;;;;11.55;3.75;;;;;;;12.83;60.77;102097.00;5059518;28;20183;-70
2022/11/10 07:40:21;;;;;;;11.68;4.10;;;;;;;12.90;60.81;102097.50;5074640;28;20426;-71
2022/11/10 07:43:06;;;;;;;13.77;4.63;;;;;;;12.96;61.11;102089.91;5074455;28;20552;-70
2022/11/10 07:45:52;;;;;;;13.32;4.07;;;;;;;13.06;60.92;102090.22;5074276;28;20048;-71
2022/11/10 07:48:37;;;;;;;13.23;4.35;;;;;;;13.12;61.33;102087.13;5074310;28;20043;-70
2022/11/10 07:51:22;;;;;;;12.68;3.85;;;;;;;13.21;61.38;102093.81;5074397;28;20055;-71
2022/11/10 07:54:07;;;;;;;12.60;3.50;;;;;;;13.28;61.42;102092.47;5073712;28;20177;-70
2022/11/10 07:56:54;;;;;;;14.65;3.70;;;;;;;13.33;61.14;102104.72;5074338;28;20134;-70
2022/11/10 07:59:39;;;;;;;12.60;3.78;;;;;;;13.37;61.26;102105.38;5074545;28;20059;-71
2022/11/10 08:02:24;;;;;;;10.80;3.47;;;;;;;13.42;61.08;102103.28;5074166;28;20051;-70
2022/11/10 08:05:09;;;;;;;9.95;3.47;;;;;;;13.49;61.01;102101.06;5073554;28;20394;-71
2022/11/10 08:07:54;;;;;;;17.47;3.57;;;;;;;13.52;61.00;102114.38;5074084;28;20571;-70
2022/11/10 08:10:40;;;;;;;12.88;3.95;;;;;;;13.55;61.23;102122.28;5072751;28;20047;-70
2022/11/10 08:13:25;;;;;;;9.90;4.00;;;;;;;13.59;60.78;102124.69;5073676;28;20063;-70
2022/11/10 08:16:10;;;;;;;15.80;4.10;;;;;;;13.62;61.29;102127.19;5073809;28;20049;-70
2022/11/10 08:18:55;;;;;;;12.43;3.58;;;;;;;13.66;60.96;102139.53;5073823;28;20058;-71
2022/11/10 08:21:40;;;;;;;14.10;3.13;;;;;;;13.68;61.22;102147.53;5073569;28;20114;-70
2022/11/10 08:24:30;;;;;;;10.57;3.55;;;;;;;13.73;61.15;102160.72;5073759;28;20301;-70
2022/11/10 08:27:15;;;;;;;11.55;4.13;;;;;;;13.75;61.28;102150.72;5073701;28;20409;-70
2022/11/10 08:30:00;;;;;;;17.17;4.27;;;;;;;13.79;61.05;102153.13;5073426;28;20048;-70
2022/11/10 08:32:45;;;;;;;15.65;4.22;;;;;;;13.84;61.43;102150.13;5073216;28;20051;-70
2022/11/10 08:35:35;;;;;;;11.70;4.13;;;;;;;13.90;61.24;102150.59;5073606;28;20051;-70
2022/11/10 08:38:23;;;;;;;10.38;3.90;;;;;;;14.02;61.51;102148.94;5073611;28;20368;-71
2022/11/10 08:41:07;;;;;;;12.63;4.45;;;;;;;14.14;61.81;102145.47;5073019;28;20055;-71
2022/11/10 08:43:53;;;;;;;18.85;4.47;;;;;;;14.26;61.90;102146.50;5073148;28;20068;-70
2022/11/10 08:46:43;;;;;;;12.70;3.88;;;;;;;14.39;61.88;102152.81;5073369;28;20520;-70
2022/11/10 08:49:28;;;;;;;11.05;4.07;;;;;;;14.51;61.46;102153.88;5073357;28;20418;-70
2022/11/10 08:52:13;;;;;;;17.02;4.50;;;;;;;14.65;61.57;102156.50;5073454;28;20051;-70
2022/11/10 08:55:00;;;;;;;12.10;4.27;;;;;;;14.83;61.38;102159.81;5073117;28;20110;-70
2022/11/10 08:57:46;;;;;;;15.38;4.22;;;;;;;15.01;61.63;102160.41;5058137;28;20050;-70
2022/11/10 09:00:32;;;;;;;11.98;4.05;;;;;;;15.16;61.21;102176.44;5072583;28;20056;-70
2022/11/10 09:03:22;;;;;;;11.57;3.83;;;;;;;15.32;61.31;102169.97;5072933;28;20060;-70
2022/11/10 09:06:08;;;;;;;11.80;4.28;;;;;;;15.47;61.05;102179.72;5057908;28;20052;-71
2022/11/10 09:08:53;;;;;;;13.13;3.70;;;;;;;15.60;61.08;102185.16;5072843;28;20043;-70
2022/11/10 09:11:38;;;;;;;12.63;3.90;;;;;;;15.70;60.46;102184.44;5072606;28;20180;-70
2022/11/10 09:14:26;;;;;;;12.98;4.53;;;;;;;15.80;60.65;102190.94;5073117;28;20058;-71
2022/11/10 09:17:12;;;;;;;13.40;3.30;;;;;;;15.91;60.28;102192.88;5073244;28;20578;-70
2022/11/10 09:19:57;;;;;;;12.50;3.40;;;;;;;16.03;60.24;102191.09;5072752;28;20135;-70
2022/11/10 09:22:42;;;;;;;8.90;3.10;;;;;;;16.15;60.08;102198.34;5069915;28;20094;-64
2022/11/10 09:25:29;;;;;;;10.10;3.00;;;;;;;16.28;60.05;102201.88;5072182;28;20191;-65
2022/11/10 09:28:15;;;;;;;8.90;2.95;;;;;;;16.38;60.00;102196.69;5072246;28;20047;-65
2022/11/10 09:31:00;;;;;;;14.82;3.97;;;;;;;16.47;60.08;102194.16;5072476;28;20097;-65
2022/11/10 09:33:45;;;;;;;9.37;3.57;;;;;;;16.64;59.58;102206.44;5071746;28;20051;-65
2022/11/10 09:36:31;;;;;;;11.53;4.17;;;;;;;16.77;59.70;102201.84;5070637;28;20135;-65
2022/11/10 09:39:17;;;;;;;12.23;3.53;;;;;;;16.87;59.49;102210.16;5054724;28;20071;-66
2022/11/10 09:42:05;;;;;;;12.65;3.13;;;;;;;16.98;59.35;102203.91;5071275;28;20067;-65
2022/11/10 09:44:59;;;;;;;13.10;3.08;;;;;;;17.09;58.84;102213.00;5072052;28;20052;-65
2022/11/10 09:48:04;;;;;;;13.45;3.38;;;;;;;17.24;58.41;102215.50;5071765;28;20517;-65
2022/11/10 09:50:57;;;;;;;12.50;2.92;;;;;;;17.34;58.33;102217.41;5055686;28;20055;-66
2022/11/10 09:53:49;;;;;;;11.85;3.05;;;;;;;17.39;58.35;102217.91;5070386;28;20055;-65
2022/11/10 09:56:37;;;;;;;12.90;3.33;;;;;;;17.48;58.31;102221.75;5071012;28;20469;-65
2022/11/10 09:59:28;;;;;;;10.13;3.05;;;;;;;17.61;57.97;102225.22;5070761;28;20557;-65
2022/11/10 10:02:32;;;;;;;11.18;3.10;;;;;;;17.71;58.13;102220.81;5070331;28;20055;-66
2022/11/10 10:05:28;;;;;;;12.88;2.88;;;;;;;17.82;57.71;102221.81;5071128;28;20063;-65
2022/11/10 10:08:22;;;;;;;7.30;2.45;;;;;;;17.87;57.14;102214.19;5072405;28;20056;-65
2022/11/10 10:11:16;;;;;;;11.13;2.97;;;;;;;17.95;57.38;102211.72;5071430;28;20050;-68
2022/11/10 10:14:30;;;;;;;13.52;3.40;;;;;;;18.04;57.52;102217.28;5071233;28;20444;-66
2022/11/10 10:17:18;;;;;;;14.02;3.60;;;;;;;18.20;57.15;102210.59;5071329;28;20051;-67
2022/11/10 10:20:22;;;;;;;9.15;3.13;;;;;;;18.29;56.85;102223.44;5071423;28;20106;-67
2022/11/10 10:23:10;;;;;;;12.82;3.25;;;;;;;18.34;56.88;102227.53;5071418;28;20055;-67
2022/11/10 10:25:55;;;;;;;11.43;3.15;;;;;;;18.40;56.59;102232.44;5071604;28;20059;-67
2022/11/10 10:28:44;;;;;;;13.98;2.97;;;;;;;18.46;56.24;102241.97;5071448;28;20055;-67
2022/11/10 10:31:41;;;;;;;12.25;2.78;;;;;;;18.56;56.40;102239.34;5071478;28;20564;-67
2022/11/10 10:34:33;;;;;;;14.05;3.22;;;;;;;18.63;55.89;102241.50;5070819;28;20075;-67
2022/11/10 10:37:45;;;;;;;14.23;2.50;;;;;;;18.72;55.83;102250.75;5071222;28;20505;-67
2022/11/10 10:40:31;;;;;;;15.07;2.92;;;;;;;18.83;55.78;102258.03;5063641;28;20052;-66
2022/11/10 10:43:16;;;;;;;14.55;2.97;;;;;;;18.91;55.50;102260.97;5068719;28;20086;-66
2022/11/10 10:46:06;;;;;;;11.75;2.67;;;;;;;18.93;55.34;102265.28;5071495;28;20055;-66
2022/11/10 10:49:19;;;;;;;7.95;2.25;;;;;;;18.97;55.28;102271.34;5070964;28;20441;-67
2022/11/10 10:52:16;;;;;;;9.98;3.08;;;;;;;19.05;55.29;102275.16;5051035;28;20705;-66
2022/11/10 10:55:07;;;;;;;9.20;2.88;;;;;;;19.18;55.10;102283.13;5051538;28;20521;-67
2022/11/10 10:57:58;;;;;;;13.60;2.72;;;;;;;19.29;54.74;102283.09;5051444;28;20052;-67
2022/11/10 11:00:46;;;;;;;10.52;2.35;;;;;;;19.41;54.90;102274.91;5052054;28;20574;-67
2022/11/10 11:03:49;;;;;;;11.63;3.00;;;;;;;19.57;54.64;102275.34;5068249;28;20063;-66
2022/11/10 11:06:34;;;;;;;11.88;2.70;;;;;;;19.72;54.36;102284.91;5071108;28;20076;-66
2022/11/10 11:09:29;;;;;;;9.60;3.08;;;;;;;19.82;54.11;102284.97;5071387;28;20064;-67
2022/11/10 11:12:16;;;;;;;8.02;2.17;;;;;;;19.92;53.88;102277.72;5070120;28;20056;-67
2022/11/10 11:15:28;;;;;;;10.15;2.22;;;;;;;19.98;53.74;102272.56;5069799;28;20060;-67
2022/11/10 11:18:15;;;;;;;9.80;3.40;;;;;;;20.03;53.46;102276.75;5070099;28;20490;-66
2022/11/10 11:21:32;;;;;;;9.38;2.40;;;;;;;20.10;53.31;102267.06;5066151;28;20414;-69
2022/11/10 11:24:47;;;;;;;10.05;2.88;;;;;;;20.15;52.97;102275.69;5060783;28;20055;-70
2022/11/10 11:27:44;;;;;;;10.15;2.60;;;;;;;20.19;53.09;102274.44;5070823;28;20051;-69
2022/11/10 11:31:10;;;;;;;11.23;2.40;;;;;;;20.19;52.75;102272.56;5070856;28;20284;-69
2022/11/10 11:34:29;;;;;;;6.93;2.45;;;;;;;20.25;52.85;102277.47;5070673;28;20063;-69
2022/11/10 11:37:31;;;;;;;12.90;2.60;;;;;;;20.35;52.82;102293.00;5055335;28;20047;-69
2022/11/10 11:40:26;;;;;;;15.77;3.33;;;;;;;20.43;52.40;102295.94;5068631;28;20174;-69
2022/11/10 11:43:26;;;;;;;8.73;2.00;;;;;;;20.51;52.36;102293.38;5070563;28;20410;-69
2022/11/10 11:46:28;;;;;;;11.25;2.15;;;;;;;20.56;51.77;102302.03;5072807;28;20101;-68
2022/11/10 11:49:40;;;;;;;11.05;2.53;;;;;;;20.53;51.70;102297.72;5072393;28;20066;-69
2022/11/10 11:52:37;;;;;;;10.75;2.13;;;;;;;20.57;51.43;102296.44;5074098;28;20122;-69
2022/11/10 11:55:55;;;;;;;9.57;2.10;;;;;;;20.61;51.52;102308.78;5074064;28;20081;-69
2022/11/10 11:58:40;;;;;;;9.82;2.53;;;;;;;20.63;51.21;102314.13;5071342;28;20051;-69
2022/11/10 12:01:27;;;;;;;4.13;1.87;;;;;;;20.62;51.12;102320.59;5074109;28;20113;-70
2022/11/10 12:04:31;;;;;;;7.85;2.20;;;;;;;20.57;50.95;102325.59;5074078;28;20290;-69
2022/11/10 12:07:34;;;;;;;10.02;2.05;;;;;;;20.56;50.73;102326.59;5073830;28;20048;-69
2022/11/10 12:10:46;;;;;;;5.85;1.73;;;;;;;20.60;50.81;102331.63;5057222;28;20056;-70
2022/11/10 12:13:35;;;;;;;11.05;2.20;;;;;;;20.66;50.78;102332.94;5073501;28;20044;-69
2022/11/10 12:16:33;;;;;;;11.35;2.70;;;;;;;20.74;50.92;102341.31;5073698;28;20082;-69
2022/11/10 12:19:27;;;;;;;9.40;2.38;;;;;;;20.78;50.76;102329.09;5072090;28;20583;-69
2022/11/10 12:22:36;;;;;;;6.80;1.90;;;;;;;20.86;50.72;102337.50;5073666;28;20187;-69
2022/11/10 12:25:41;;;;;;;8.30;1.83;;;;;;;20.88;50.45;102338.22;5073756;28;20054;-69
2022/11/10 12:28:33;;;;;;;10.48;2.10;;;;;;;20.97;50.49;102332.91;5072021;28;20048;-69
2022/11/10 12:31:22;;;;;;;6.85;1.85;;;;;;;21.05;50.46;102324.88;5073821;28;20091;-70
2022/11/10 12:34:32;;;;;;;6.55;2.13;;;;;;;21.17;50.16;102323.75;5074813;28;20056;-69
2022/11/10 12:37:47;;;;;;;8.60;1.50;;;;;;;21.27;50.04;102327.38;5073449;28;20055;-70
2022/11/10 12:40:41;;;;;;;13.63;2.58;;;;;;;21.23;49.80;102339.59;5074269;28;20110;-69
2022/11/10 12:43:41;;;;;;;10.10;2.00;;;;;;;21.21;49.96;102327.91;5072937;28;20410;-69
2022/11/10 12:46:26;;;;;;;7.60;1.95;;;;;;;21.26;49.64;102333.84;5073422;28;20560;-70
2022/11/10 12:49:29;;;;;;;9.63;2.00;;;;;;;21.35;49.49;102332.13;5070072;28;20055;-69
2022/11/10 12:52:26;;;;;;;7.05;2.10;;;;;;;21.43;49.44;102330.41;5052585;28;20087;-70
2022/11/10 12:55:15;;;;;;;11.82;2.17;;;;;;;21.52;49.12;102328.69;5052993;28;20123;-66
2022/11/10 12:58:02;;;;;;;7.55;1.70;;;;;;;21.57;48.76;102329.16;5051867;28;20060;-70
2022/11/10 13:01:04;;;;;;;5.70;1.50;;;;;;;21.60;48.40;102331.59;5052898;28;20052;-70
2022/11/10 13:03:59;;;;;;;8.85;1.48;;;;;;;21.61;47.94;102343.38;5052334;28;20060;-70
2022/11/10 13:06:56;;;;;;;7.65;2.97;;;;;;;21.53;47.91;102341.34;5051074;28;20055;-70
2022/11/10 13:09:42;;;;;;;9.77;1.83;;;;;;;21.48;47.98;102341.78;5051166;28;20522;-70
2022/11/10 13:12:27;;;;;;;7.93;1.98;;;;;;;21.39;47.61;102344.50;5050619;28;20589;-69
2022/11/10 13:15:38;;;;;;;6.45;1.50;;;;;;;21.24;47.82;102353.13;5051208;28;20055;-70
2022/11/10 13:18:29;;;;;;;5.22;1.67;;;;;;;21.20;47.78;102350.78;5050957;28;20052;-70